createdAt,value
2022-12-15T00:09:07.550Z,65.09
2022-12-15T00:19:56.047Z,64.89
2022-12-15T00:30:41.321Z,65.64
2022-12-15T00:41:08.835Z,66.28
2022-12-15T00:51:53.870Z,66.60
2022-12-15T01:02:38.644Z,67.25
2022-12-15T01:13:23.957Z,67.98
2022-12-15T01:23:51.477Z,68.54
2022-12-15T01:34:20.346Z,68.80
2022-12-15T01:44:52.030Z,68.56
2022-12-15T01:55:21.329Z,69.13
2022-12-15T02:05:49.201Z,69.74
2022-12-15T02:16:23.748Z,70.01
2022-12-15T02:27:16.983Z,70.36
2022-12-15T02:37:46.206Z,70.88
2022-12-15T02:48:30.036Z,70.78
2022-12-15T02:59:11.737Z,70.64
2022-12-15T03:09:39.185Z,69.83
2022-12-15T03:20:09.064Z,68.98
2022-12-15T03:30:36.522Z,69.29
2022-12-15T03:41:04.114Z,69.06
2022-12-15T03:51:31.520Z,68.64
2022-12-15T04:01:59.286Z,67.61
2022-12-15T04:12:26.904Z,68.21
2022-12-15T04:22:54.428Z,69.00
2022-12-15T04:33:40.261Z,69.58
2022-12-15T04:44:25.836Z,69.77
2022-12-15T04:55:10.530Z,69.70
2022-12-15T05:05:55.620Z,69.25
2022-12-15T05:16:41.250Z,69.16
2022-12-15T05:27:26.651Z,68.64
2022-12-15T05:37:54.632Z,68.50
2022-12-15T05:48:22.924Z,68.51
2022-12-15T05:58:51.084Z,68.26
2022-12-15T06:09:19.240Z,67.76
2022-12-15T06:19:47.337Z,67.89
2022-12-15T06:30:16.559Z,67.67
2022-12-15T06:40:44.189Z,67.31
2022-12-15T06:51:17.154Z,67.44
2022-12-15T07:01:45.128Z,67.62
2022-12-15T07:12:15.080Z,67.06
2022-12-15T07:22:42.634Z,66.54
2022-12-15T07:33:10.126Z,66.23
2022-12-15T07:43:38.544Z,65.85
2022-12-15T07:54:06.805Z,65.29
2022-12-15T08:04:34.705Z,65.43
2022-12-15T08:15:02.063Z,65.62
2022-12-15T08:25:30.575Z,65.57
2022-12-15T08:36:03.151Z,65.60
2022-12-15T08:46:32.115Z,65.06
2022-12-15T08:56:59.612Z,64.43
2022-12-15T09:07:27.061Z,63.82
2022-12-15T09:17:54.488Z,63.67
2022-12-15T09:28:22.049Z,64.17
2022-12-15T09:38:50.537Z,64.30
2022-12-15T09:49:29.181Z,63.70
2022-12-15T10:00:08.347Z,63.10
2022-12-15T10:10:44.128Z,63.07
2022-12-15T10:21:15.332Z,62.83
2022-12-15T10:31:49.853Z,62.75
2022-12-15T10:42:21.123Z,62.46
2022-12-15T10:52:48.997Z,62.23
2022-12-15T11:03:26.311Z,61.90
2022-12-15T11:14:13.266Z,62.39
2022-12-15T11:24:46.591Z,62.32
2022-12-15T11:35:20.753Z,62.09
2022-12-15T11:46:29.549Z,62.33
2022-12-15T11:57:03.223Z,62.45
2022-12-15T12:07:42.343Z,62.33
2022-12-15T12:18:19.109Z,63.66
2022-12-15T12:28:51.193Z,64.27
2022-12-15T12:39:21.935Z,64.25
2022-12-15T12:49:53.036Z,64.24
2022-12-15T13:00:24.388Z,64.02
2022-12-15T13:11:25.017Z,63.64
2022-12-15T13:21:58.597Z,63.51
2022-12-15T13:32:33.424Z,63.79
2022-12-15T13:43:09.292Z,64.01
2022-12-15T13:53:43.221Z,64.61
2022-12-15T14:04:15.893Z,64.18
2022-12-15T14:14:50.296Z,64.47
2022-12-15T14:25:21.843Z,64.04
2022-12-15T14:35:52.488Z,65.10
2022-12-15T14:46:23.663Z,65.56
2022-12-15T14:57:00.376Z,65.40
2022-12-15T15:07:29.614Z,65.04
2022-12-15T15:17:59.583Z,65.05
2022-12-15T15:28:29.569Z,65.00
2022-12-15T15:38:58.196Z,64.71
2022-12-15T15:49:26.199Z,64.57
2022-12-15T15:59:53.595Z,64.59
2022-12-15T16:10:21.955Z,64.50
2022-12-15T16:20:51.702Z,64.75
2022-12-15T16:31:35.624Z,64.48
2022-12-15T16:42:14.476Z,64.99
2022-12-15T16:52:42.338Z,64.80
2022-12-15T17:03:15.292Z,64.46
2022-12-15T17:14:03.839Z,64.39
2022-12-15T17:25:02.857Z,64.18
2022-12-15T17:35:56.866Z,64.31
2022-12-15T17:46:49.867Z,64.66
2022-12-15T17:57:42.814Z,65.39
2022-12-15T18:08:47.762Z,65.40
2022-12-15T18:19:39.758Z,65.58
2022-12-15T18:30:40.767Z,65.94
2022-12-15T18:41:32.794Z,65.84
2022-12-15T18:52:35.127Z,65.27
2022-12-15T19:03:34.043Z,64.98
2022-12-15T19:14:52.825Z,65.23
2022-12-15T19:25:53.782Z,65.68
2022-12-15T19:36:53.739Z,66.10
2022-12-15T19:47:52.761Z,66.33
2022-12-15T19:58:51.700Z,66.41
2022-12-15T20:09:48.729Z,66.31
2022-12-15T20:20:47.713Z,65.92
2022-12-15T20:31:39.795Z,66.15
2022-12-15T20:42:38.692Z,66.84
2022-12-15T20:53:30.951Z,67.65
2022-12-15T21:04:39.700Z,68.11
2022-12-15T21:15:32.649Z,68.29
2022-12-15T21:26:26.676Z,68.68
2022-12-15T21:37:36.661Z,68.71
2022-12-15T21:48:33.538Z,68.80
2022-12-15T21:59:02.484Z,69.26
2022-12-15T22:09:29.940Z,69.18
2022-12-15T22:19:57.576Z,69.59
2022-12-15T22:30:27.231Z,69.27
2022-12-15T22:40:58.599Z,69.36
2022-12-15T22:51:26.107Z,69.40
2022-12-15T23:01:54.398Z,69.65
2022-12-15T23:12:22.155Z,69.77
2022-12-15T23:22:50.198Z,69.83
2022-12-15T23:33:18.175Z,69.51
2022-12-15T23:43:46.492Z,69.55
2022-12-15T23:54:14.583Z,69.83
